createdAt,value
2017-10-11T00:00:57.195Z,14.78
2017-10-11T00:01:57.189Z,14.83
2017-10-11T00:02:57.153Z,14.69
2017-10-11T00:03:57.162Z,14.75
2017-10-11T00:04:57.107Z,14.82
2017-10-11T00:05:57.086Z,14.78
2017-10-11T00:06:57.064Z,14.8
2017-10-11T00:07:57.048Z,14.75
2017-10-11T00:08:57.027Z,14.74
2017-10-11T00:09:57.006Z,14.82
2017-10-11T00:10:56.978Z,14.72
2017-10-11T00:11:56.959Z,14.83
2017-10-11T00:12:56.942Z,14.8
2017-10-11T00:13:56.595Z,14.82
2017-10-11T00:14:56.899Z,14.72
2017-10-11T00:15:56.561Z,14.78
2017-10-11T00:16:56.846Z,14.63
2017-10-11T00:17:56.818Z,14.67
2017-10-11T00:18:56.815Z,14.61
2017-10-11T00:19:56.779Z,14.57
2017-10-11T00:20:56.760Z,14.66
2017-10-11T00:21:56.731Z,14.63
2017-10-11T00:22:56.714Z,14.6
2017-10-11T00:23:56.692Z,14.59
2017-10-11T00:24:56.670Z,14.57
2017-10-11T00:25:56.644Z,14.59
2017-10-11T00:26:56.651Z,14.52
2017-10-11T00:27:56.630Z,14.57
2017-10-11T00:28:56.271Z,14.54
2017-10-11T00:29:56.253Z,14.56
2017-10-11T00:30:56.543Z,14.59
2017-10-11T00:31:56.526Z,14.54
2017-10-11T00:32:56.493Z,14.6
2017-10-11T00:33:56.486Z,14.6
2017-10-11T00:34:56.446Z,14.56
2017-10-11T00:35:56.428Z,14.59
2017-10-11T00:36:56.406Z,14.59
2017-10-11T00:37:56.400Z,14.54
2017-10-11T00:38:56.370Z,14.54
2017-10-11T00:39:56.350Z,14.48
2017-10-11T00:40:56.321Z,14.53
2017-10-11T00:41:56.311Z,14.53
2017-10-11T00:42:56.276Z,14.49
2017-10-11T00:43:56.265Z,14.56
2017-10-11T00:44:56.233Z,14.52
2017-10-11T00:45:56.207Z,14.59
2017-10-11T00:46:56.189Z,14.59
2017-10-11T00:47:55.848Z,14.56
2017-10-11T00:48:55.820Z,14.53
2017-10-11T00:49:56.123Z,14.52
2017-10-11T00:50:56.098Z,14.52
2017-10-11T00:51:56.081Z,14.52
2017-10-11T00:52:56.060Z,14.49
2017-10-11T00:53:56.049Z,14.53
2017-10-11T00:54:56.014Z,14.53
2017-10-11T00:55:55.672Z,14.54
2017-10-11T00:56:55.973Z,14.45
2017-10-11T00:57:55.951Z,14.45
2017-10-11T00:58:55.927Z,14.42
2017-10-11T00:59:55.901Z,14.52
2017-10-11T01:00:55.882Z,14.49
2017-10-11T01:01:55.867Z,14.49
2017-10-11T01:02:55.833Z,14.54
2017-10-11T01:03:55.822Z,14.45
2017-10-11T01:04:55.801Z,14.54
2017-10-11T01:05:55.462Z,14.49
2017-10-11T01:06:55.749Z,14.54
2017-10-11T01:07:55.725Z,14.53
2017-10-11T01:08:55.712Z,14.53
2017-10-11T01:09:55.381Z,14.52
2017-10-11T01:10:55.660Z,14.41
2017-10-11T01:11:55.641Z,14.42
2017-10-11T01:12:55.613Z,14.42
2017-10-11T01:13:55.600Z,14.46
2017-10-11T01:14:55.570Z,14.42
2017-10-11T01:15:55.562Z,14.42
2017-10-11T01:16:55.531Z,14.42
2017-10-11T01:17:55.513Z,14.46
2017-10-11T01:18:55.488Z,14.36
2017-10-11T01:19:55.460Z,14.42
2017-10-11T01:20:55.125Z,14.39
2017-10-11T01:21:55.416Z,14.45
2017-10-11T01:22:55.400Z,14.38
2017-10-11T01:23:55.376Z,14.38
2017-10-11T01:24:55.357Z,14.41
2017-10-11T01:25:55.329Z,14.38
2017-10-11T01:26:55.302Z,14.26
2017-10-11T01:27:55.290Z,14.24
2017-10-11T01:28:55.268Z,14.29
2017-10-11T01:29:55.236Z,14.31
2017-10-11T01:30:55.251Z,14.29
2017-10-11T01:31:55.207Z,14.35
2017-10-11T01:32:55.208Z,14.27
2017-10-11T01:33:55.164Z,14.31
2017-10-11T01:34:55.129Z,14.3
2017-10-11T01:35:55.107Z,14.23
2017-10-11T01:36:55.086Z,14.26
2017-10-11T01:37:55.074Z,14.21
2017-10-11T01:38:55.045Z,14.19
2017-10-11T01:39:55.036Z,14.2
2017-10-11T01:40:54.996Z,14.13
2017-10-11T01:41:54.981Z,14.29
2017-10-11T01:42:54.958Z,14.26
2017-10-11T01:43:54.942Z,14.12
2017-10-11T01:44:54.904Z,14.11
2017-10-11T01:45:54.885Z,14.17
2017-10-11T01:46:54.551Z,14.2
2017-10-11T01:47:54.851Z,14.2
2017-10-11T01:48:54.819Z,14.13
2017-10-11T01:49:54.798Z,14.2
2017-10-11T01:50:54.783Z,14.23
2017-10-11T01:51:54.762Z,14.21
2017-10-11T01:52:54.735Z,14.27
2017-10-11T01:53:54.387Z,14.26
2017-10-11T01:54:54.695Z,14.23
2017-10-11T01:55:54.665Z,14.26
2017-10-11T01:56:54.320Z,14.16
2017-10-11T01:57:54.628Z,14.09
2017-10-11T01:58:54.599Z,14.08
2017-10-11T01:59:54.586Z,14.16
2017-10-11T02:00:54.560Z,14.09
2017-10-11T02:01:54.529Z,14.09
2017-10-11T02:02:54.511Z,14.11
2017-10-11T02:03:54.509Z,14.05
2017-10-11T02:04:54.470Z,14.01
2017-10-11T02:05:54.447Z,14.09
2017-10-11T02:06:54.422Z,14.11
2017-10-11T02:07:54.400Z,14.09
2017-10-11T02:08:54.373Z,14.06
2017-10-11T02:09:54.354Z,14.12
2017-10-11T02:10:54.344Z,14.12
2017-10-11T02:11:54.313Z,14.13
2017-10-11T02:12:53.989Z,14.08
2017-10-11T02:13:54.271Z,14.04
2017-10-11T02:14:54.252Z,14.02
2017-10-11T02:15:53.898Z,14.08
2017-10-11T02:16:54.198Z,14.05
2017-10-11T02:17:54.183Z,14.08
2017-10-11T02:18:54.151Z,14.11
2017-10-11T02:19:53.817Z,14.02
2017-10-11T02:20:54.113Z,14.05
2017-10-11T02:21:54.101Z,14.01
2017-10-11T02:22:54.066Z,14.05
2017-10-11T02:23:54.044Z,14.01
2017-10-11T02:24:54.023Z,14.02
2017-10-11T02:25:53.682Z,14.08
2017-10-11T02:26:53.983Z,14.02
2017-10-11T02:27:53.956Z,14.01
2017-10-11T02:28:53.615Z,14.02
2017-10-11T02:29:53.913Z,14.04
2017-10-11T02:30:53.895Z,14.02
2017-10-11T02:31:53.866Z,14.08
2017-10-11T02:32:53.865Z,14.01
2017-10-11T02:33:53.832Z,14.01
2017-10-11T02:34:53.802Z,13.96
2017-10-11T02:35:53.776Z,13.9
2017-10-11T02:36:53.760Z,13.91
2017-10-11T02:37:53.736Z,13.86
2017-10-11T02:38:53.712Z,13.8
2017-10-11T02:39:53.693Z,13.75
2017-10-11T02:40:53.678Z,13.79
2017-10-11T02:41:53.654Z,13.73
2017-10-11T02:42:53.620Z,13.73
2017-10-11T02:43:53.608Z,13.68
2017-10-11T02:44:53.587Z,13.63
2017-10-11T02:45:53.244Z,13.62
2017-10-11T02:46:53.534Z,13.59
2017-10-11T02:47:53.525Z,13.53
2017-10-11T02:48:53.482Z,13.48
2017-10-11T02:49:53.466Z,13.51
2017-10-11T02:50:53.123Z,13.48
2017-10-11T02:51:53.429Z,13.61
2017-10-11T02:52:53.408Z,13.55
2017-10-11T02:53:53.057Z,13.54
2017-10-11T02:54:53.360Z,13.59
2017-10-11T02:55:53.336Z,13.61
2017-10-11T02:56:53.317Z,13.61
2017-10-11T02:57:53.286Z,13.65
2017-10-11T02:58:53.264Z,13.65
2017-10-11T02:59:53.239Z,13.62
2017-10-11T03:00:53.218Z,13.69
2017-10-11T03:01:52.881Z,13.71
2017-10-11T03:02:53.181Z,13.75
2017-10-11T03:03:53.159Z,13.72
2017-10-11T03:04:53.130Z,13.8
2017-10-11T03:05:53.111Z,13.8
2017-10-11T03:06:53.088Z,13.68
2017-10-11T03:07:53.063Z,13.73
2017-10-11T03:08:53.049Z,13.88
2017-10-11T03:09:53.029Z,13.86
2017-10-11T03:10:52.994Z,13.83
2017-10-11T03:11:52.970Z,13.88
2017-10-11T03:12:52.972Z,13.83
2017-10-11T03:13:52.929Z,13.87
2017-10-11T03:14:52.908Z,13.96
2017-10-11T03:15:52.887Z,13.93
2017-10-11T03:16:52.866Z,13.98
2017-10-11T03:17:52.527Z,13.96
2017-10-11T03:18:52.824Z,13.98
2017-10-11T03:19:52.791Z,14.01
2017-10-11T03:20:52.772Z,13.94
2017-10-11T03:21:52.757Z,14.01
2017-10-11T03:22:52.734Z,13.98
2017-10-11T03:23:52.716Z,14.04
2017-10-11T03:24:52.693Z,14.05
2017-10-11T03:25:52.660Z,14.04
2017-10-11T03:26:52.638Z,13.98
2017-10-11T03:27:52.621Z,13.96
2017-10-11T03:28:52.599Z,14.01
2017-10-11T03:29:52.577Z,14.02
2017-10-11T03:30:52.578Z,14.01
2017-10-11T03:31:52.524Z,13.99
2017-10-11T03:32:52.509Z,13.99
2017-10-11T03:33:52.484Z,14.05
2017-10-11T03:34:52.462Z,14.11
2017-10-11T03:35:52.445Z,14.05
2017-10-11T03:36:52.420Z,14.08
2017-10-11T03:37:52.397Z,14.12
2017-10-11T03:38:52.382Z,14.04
2017-10-11T03:39:52.351Z,14.08
2017-10-11T03:40:52.324Z,14.08
2017-10-11T03:41:52.305Z,14.09
2017-10-11T03:42:52.284Z,14.09
2017-10-11T03:43:52.295Z,14.09
2017-10-11T03:44:52.258Z,14.09
2017-10-11T03:45:52.216Z,14.16
2017-10-11T03:46:52.198Z,14.11
2017-10-11T03:47:52.181Z,14.24
2017-10-11T03:48:51.828Z,14.09
2017-10-11T03:49:52.128Z,14.19
2017-10-11T03:50:52.113Z,14.24
2017-10-11T03:51:52.091Z,14.19
2017-10-11T03:52:52.063Z,14.16
2017-10-11T03:53:52.040Z,14.17
2017-10-11T03:54:52.014Z,14.06
2017-10-11T03:55:51.993Z,14.19
2017-10-11T03:56:51.978Z,14.16
2017-10-11T03:57:51.954Z,14.19
2017-10-11T03:58:51.927Z,14.23
2017-10-11T03:59:51.908Z,14.23
2017-10-11T04:00:51.884Z,14.16
2017-10-11T04:01:51.869Z,14.17
2017-10-11T04:02:51.838Z,14.13
2017-10-11T04:03:51.498Z,14.12
2017-10-11T04:04:51.803Z,14.17
2017-10-11T04:05:51.777Z,14.13
2017-10-11T04:06:51.752Z,14.21
2017-10-11T04:07:51.732Z,14.16
2017-10-11T04:08:51.711Z,14.21
2017-10-11T04:09:51.684Z,14.19
2017-10-11T04:10:51.659Z,14.2
2017-10-11T04:11:51.319Z,14.24
2017-10-11T04:12:51.613Z,14.16
2017-10-11T04:13:51.600Z,14.08
2017-10-11T04:14:51.573Z,14.08
2017-10-11T04:15:51.558Z,14.16
2017-10-11T04:16:51.541Z,14.08
2017-10-11T04:17:51.500Z,14.08
2017-10-11T04:18:51.487Z,14.08
2017-10-11T04:19:51.469Z,14.05
2017-10-11T04:20:51.437Z,14.13
2017-10-11T04:21:51.417Z,14.12
2017-10-11T04:22:51.394Z,14.16
2017-10-11T04:23:51.374Z,14.08
2017-10-11T04:24:51.350Z,14.12
2017-10-11T04:25:51.343Z,14.09
2017-10-11T04:26:51.309Z,14.12
2017-10-11T04:27:51.284Z,14.12
2017-10-11T04:28:51.253Z,14.05
2017-10-11T04:29:51.242Z,14.09
2017-10-11T04:30:51.218Z,14.11
2017-10-11T04:31:51.198Z,14.12
2017-10-11T04:32:51.181Z,14.12
2017-10-11T04:33:51.154Z,14.17
2017-10-11T04:34:51.129Z,14.08
2017-10-11T04:35:50.795Z,14.11
2017-10-11T04:36:51.095Z,14.13
2017-10-11T04:37:51.096Z,14.17
2017-10-11T04:38:51.057Z,14.21
2017-10-11T04:39:51.048Z,14.23
2017-10-11T04:40:51.005Z,14.2
2017-10-11T04:41:50.972Z,14.29
2017-10-11T04:42:50.953Z,14.24
2017-10-11T04:43:50.930Z,14.17
2017-10-11T04:44:50.919Z,14.2
2017-10-11T04:45:50.886Z,14.23
2017-10-11T04:46:50.869Z,14.19
2017-10-11T04:47:50.849Z,14.27
2017-10-11T04:48:50.821Z,14.2
2017-10-11T04:49:50.796Z,14.12
2017-10-11T04:50:50.782Z,14.23
2017-10-11T04:51:50.436Z,14.17
2017-10-11T04:52:50.728Z,14.17
2017-10-11T04:53:50.713Z,14.19
2017-10-11T04:54:50.695Z,14.27
2017-10-11T04:55:50.687Z,14.13
2017-10-11T04:56:50.640Z,14.17
2017-10-11T04:57:50.616Z,14.24
2017-10-11T04:58:50.606Z,14.17
2017-10-11T04:59:50.584Z,14.11
2017-10-11T05:00:50.556Z,14.08
2017-10-11T05:01:50.555Z,14.11
2017-10-11T05:02:50.508Z,14.23
2017-10-11T05:03:50.169Z,14.12
2017-10-11T05:04:50.473Z,14.09
2017-10-11T05:05:50.453Z,14.11
2017-10-11T05:06:50.425Z,14.16
2017-10-11T05:07:50.078Z,14.12
2017-10-11T05:08:50.057Z,14.24
2017-10-11T05:09:50.355Z,14.12
2017-10-11T05:10:50.343Z,14.11
2017-10-11T05:11:50.316Z,14.12
2017-10-11T05:12:50.296Z,14.13
2017-10-11T05:13:50.274Z,14.09
2017-10-11T05:14:50.251Z,14.11
2017-10-11T05:15:50.218Z,14.11
2017-10-11T05:16:50.201Z,14.12
2017-10-11T05:17:50.180Z,14.06
2017-10-11T05:18:50.161Z,14.09
2017-10-11T05:19:50.134Z,14.06
2017-10-11T05:20:50.110Z,14.11
2017-10-11T05:21:50.087Z,14.12
2017-10-11T05:22:49.749Z,14.08
2017-10-11T05:23:50.052Z,14.08
2017-10-11T05:24:50.035Z,14.09
2017-10-11T05:25:50.002Z,14.11
2017-10-11T05:26:49.978Z,14.11
2017-10-11T05:27:49.971Z,14.12
2017-10-11T05:28:49.936Z,14.11
2017-10-11T05:29:49.921Z,14.11
2017-10-11T05:30:49.888Z,14.11
2017-10-11T05:31:49.864Z,14.05
2017-10-11T05:32:49.857Z,14.06
2017-10-11T05:33:49.825Z,14.05
2017-10-11T05:34:49.797Z,14.09
2017-10-11T05:35:49.458Z,14.08
2017-10-11T05:36:49.444Z,14.04
2017-10-11T05:37:49.737Z,14.08
2017-10-11T05:38:49.704Z,14.05
2017-10-11T05:39:49.697Z,14.12
2017-10-11T05:40:49.669Z,14.11
2017-10-11T05:41:49.645Z,14.11
2017-10-11T05:42:49.626Z,14.13
2017-10-11T05:43:49.607Z,14.08
2017-10-11T05:44:49.582Z,14.12
2017-10-11T05:45:49.568Z,14.06
2017-10-11T05:46:49.534Z,14.04
2017-10-11T05:47:49.193Z,14.05
2017-10-11T05:48:49.494Z,13.99
2017-10-11T05:49:49.157Z,14.02
2017-10-11T05:50:49.448Z,14.09
2017-10-11T05:51:49.424Z,14.04
2017-10-11T05:52:49.416Z,14.04
2017-10-11T05:53:49.058Z,14.02
2017-10-11T05:54:49.039Z,14.04
2017-10-11T05:55:49.359Z,14.04
2017-10-11T05:56:49.310Z,14.13
2017-10-11T05:57:49.301Z,14.05
2017-10-11T05:58:49.263Z,14.02
2017-10-11T05:59:49.243Z,14.17
2017-10-11T06:00:49.235Z,14.16
2017-10-11T06:01:49.202Z,14.06
2017-10-11T06:02:49.167Z,14.06
2017-10-11T06:03:49.154Z,14.17
2017-10-11T06:04:49.138Z,14.09
2017-10-11T06:05:49.118Z,14.06
2017-10-11T06:06:49.084Z,14.12
2017-10-11T06:07:49.062Z,14.09
2017-10-11T06:08:49.043Z,14.17
2017-10-11T06:09:49.037Z,14.19
2017-10-11T06:10:48.685Z,14.11
2017-10-11T06:11:48.996Z,14.21
2017-10-11T06:12:48.964Z,14.11
2017-10-11T06:13:48.935Z,14.19
2017-10-11T06:14:48.911Z,14.23
2017-10-11T06:15:48.893Z,14.23
2017-10-11T06:16:48.862Z,14.21
2017-10-11T06:17:48.850Z,14.17
2017-10-11T06:18:48.830Z,14.13
2017-10-11T06:19:48.480Z,14.11
2017-10-11T06:20:48.790Z,14.2
2017-10-11T06:21:48.760Z,14.13
2017-10-11T06:22:48.740Z,14.23
2017-10-11T06:23:48.709Z,14.13
2017-10-11T06:24:48.700Z,14.17
2017-10-11T06:25:48.681Z,14.19
2017-10-11T06:26:48.660Z,14.21
2017-10-11T06:27:48.626Z,14.27
2017-10-11T06:28:48.601Z,14.21
2017-10-11T06:29:48.577Z,14.2
2017-10-11T06:30:48.238Z,14.24
2017-10-11T06:31:48.535Z,14.29
2017-10-11T06:32:48.511Z,14.26
2017-10-11T06:33:48.484Z,14.23
2017-10-11T06:34:48.470Z,14.26
2017-10-11T06:35:48.454Z,14.26
2017-10-11T06:36:48.419Z,14.34
2017-10-11T06:37:48.446Z,14.29
2017-10-11T06:38:48.386Z,14.23
2017-10-11T06:39:48.373Z,14.29
2017-10-11T06:40:48.332Z,14.3
2017-10-11T06:41:48.319Z,14.29
2017-10-11T06:42:48.311Z,14.29
2017-10-11T06:43:48.277Z,14.3
2017-10-11T06:44:48.248Z,14.36
2017-10-11T06:45:48.228Z,14.34
2017-10-11T06:46:48.205Z,14.3
2017-10-11T06:47:48.187Z,14.34
2017-10-11T06:48:48.158Z,14.3
2017-10-11T06:49:48.140Z,14.29
2017-10-11T06:50:48.114Z,14.34
2017-10-11T06:51:48.107Z,14.31
2017-10-11T06:52:48.067Z,14.26
2017-10-11T06:53:48.047Z,14.31
2017-10-11T06:54:48.023Z,14.34
2017-10-11T06:55:48.005Z,14.35
2017-10-11T06:56:47.982Z,14.27
2017-10-11T06:57:47.959Z,14.29
2017-10-11T06:58:47.938Z,14.34
2017-10-11T06:59:47.909Z,14.3
2017-10-11T07:00:47.909Z,14.39
2017-10-11T07:01:47.873Z,14.35
2017-10-11T07:02:47.856Z,14.27
2017-10-11T07:03:47.843Z,14.41
2017-10-11T07:04:47.803Z,14.36
2017-10-11T07:05:47.794Z,14.35
2017-10-11T07:06:47.762Z,14.38
2017-10-11T07:07:47.744Z,14.36
2017-10-11T07:08:47.726Z,14.41
2017-10-11T07:09:47.707Z,14.44
2017-10-11T07:10:47.678Z,14.44
2017-10-11T07:11:47.658Z,14.45
2017-10-11T07:12:47.642Z,14.42
2017-10-11T07:13:47.603Z,14.46
2017-10-11T07:14:47.593Z,14.52
2017-10-11T07:15:47.567Z,14.52
2017-10-11T07:16:47.548Z,14.6
2017-10-11T07:17:47.517Z,14.52
2017-10-11T07:18:47.507Z,14.61
2017-10-11T07:19:47.499Z,14.57
2017-10-11T07:20:47.456Z,14.64
2017-10-11T07:21:47.442Z,14.61
2017-10-11T07:22:48.104Z,14.64
2017-10-11T07:23:47.386Z,14.63
2017-10-11T07:24:47.359Z,14.6
2017-10-11T07:25:47.349Z,14.66
2017-10-11T07:26:47.328Z,14.63
2017-10-11T07:27:47.304Z,14.71
2017-10-11T07:28:47.281Z,14.69
2017-10-11T07:29:47.258Z,14.78
2017-10-11T07:30:47.246Z,14.75
2017-10-11T07:31:47.216Z,14.85
2017-10-11T07:32:47.197Z,14.79
2017-10-11T07:33:47.173Z,14.78
2017-10-11T07:34:47.140Z,14.75
2017-10-11T07:35:47.131Z,14.85
2017-10-11T07:36:47.114Z,14.8
2017-10-11T07:37:47.095Z,14.74
2017-10-11T07:38:47.070Z,14.82
2017-10-11T07:39:47.042Z,14.8
2017-10-11T07:40:47.029Z,14.83
2017-10-11T07:41:46.688Z,14.72
2017-10-11T07:42:46.973Z,14.75
2017-10-11T07:43:46.953Z,14.72
2017-10-11T07:44:46.928Z,14.8
2017-10-11T07:45:46.910Z,14.75
2017-10-11T07:46:46.896Z,14.78
2017-10-11T07:47:46.865Z,14.86
2017-10-11T07:48:46.846Z,14.82
2017-10-11T07:49:46.502Z,14.83
2017-10-11T07:50:46.797Z,14.9
2017-10-11T07:51:46.774Z,14.93
2017-10-11T07:52:46.771Z,14.98
2017-10-11T07:53:46.735Z,14.97
2017-10-11T07:54:46.396Z,15.03
2017-10-11T07:55:46.691Z,14.98
2017-10-11T07:56:46.670Z,15.05
2017-10-11T07:57:46.645Z,15
2017-10-11T07:58:46.630Z,15
2017-10-11T07:59:46.611Z,14.95
2017-10-11T08:00:46.574Z,15.07
2017-10-11T08:01:46.559Z,15.11
2017-10-11T08:02:46.539Z,15.09
2017-10-11T08:03:46.528Z,15.01
2017-10-11T08:04:46.170Z,15.01
2017-10-11T08:05:46.152Z,15.04
2017-10-11T08:06:46.462Z,15.11
2017-10-11T08:07:46.109Z,15.13
2017-10-11T08:08:46.096Z,15.11
2017-10-11T08:09:46.070Z,15.12
2017-10-11T08:10:46.376Z,15.11
2017-10-11T08:11:46.351Z,15.03
2017-10-11T08:12:46.321Z,15.13
2017-10-11T08:13:46.294Z,15.13
2017-10-11T08:14:46.278Z,15.11
2017-10-11T08:15:46.256Z,15.11
2017-10-11T08:16:46.242Z,15.13
2017-10-11T08:17:46.213Z,15.19
2017-10-11T08:18:46.193Z,15.25
2017-10-11T08:19:45.854Z,15.2
2017-10-11T08:20:45.830Z,15.27
2017-10-11T08:21:46.125Z,15.19
2017-10-11T08:22:46.099Z,15.15
2017-10-11T08:23:46.100Z,15.27
2017-10-11T08:24:46.076Z,15.27
2017-10-11T08:25:45.717Z,15.25
2017-10-11T08:26:46.044Z,15.27
2017-10-11T08:27:45.999Z,15.25
2017-10-11T08:28:45.977Z,15.27
2017-10-11T08:29:45.970Z,15.38
2017-10-11T08:30:45.928Z,15.33
2017-10-11T08:31:45.591Z,15.34
2017-10-11T08:32:45.903Z,15.31
2017-10-11T08:33:45.871Z,15.44
2017-10-11T08:34:45.849Z,15.44
2017-10-11T08:35:45.825Z,15.4
2017-10-11T08:36:45.817Z,15.49
2017-10-11T08:37:45.784Z,15.48
2017-10-11T08:38:45.758Z,15.52
2017-10-11T08:39:45.769Z,15.52
2017-10-11T08:40:45.719Z,15.52
2017-10-11T08:41:45.695Z,15.52
2017-10-11T08:42:45.674Z,15.52
2017-10-11T08:43:45.656Z,15.52
2017-10-11T08:44:45.634Z,15.49
2017-10-11T08:45:45.608Z,15.51
2017-10-11T08:46:45.583Z,15.53
2017-10-11T08:47:45.562Z,15.55
2017-10-11T08:48:45.545Z,15.55
2017-10-11T08:49:45.525Z,15.55
2017-10-11T08:50:45.518Z,15.59
2017-10-11T08:51:45.485Z,15.7
2017-10-11T08:52:45.474Z,15.7
2017-10-11T08:53:45.120Z,15.71
2017-10-11T08:54:45.424Z,15.71
2017-10-11T08:55:45.396Z,15.71
2017-10-11T08:56:45.379Z,15.74
2017-10-11T08:57:45.356Z,15.71
2017-10-11T08:58:45.332Z,15.64
2017-10-11T08:59:45.313Z,15.68
2017-10-11T09:00:45.298Z,15.71
2017-10-11T09:01:45.277Z,15.67
2017-10-11T09:02:45.248Z,15.67
2017-10-11T09:03:45.230Z,15.76
2017-10-11T09:04:45.208Z,15.7
2017-10-11T09:05:45.188Z,15.73
2017-10-11T09:06:45.165Z,15.73
2017-10-11T09:07:45.141Z,15.7
2017-10-11T09:08:45.120Z,15.77
2017-10-11T09:09:45.115Z,15.81
2017-10-11T09:10:45.179Z,15.8
2017-10-11T09:11:44.749Z,15.86
2017-10-11T09:12:45.038Z,15.85
2017-10-11T09:13:45.014Z,15.88
2017-10-11T09:14:45.027Z,15.98
2017-10-11T09:15:44.969Z,15.93
2017-10-11T09:16:44.949Z,15.86
2017-10-11T09:17:44.932Z,15.93
2017-10-11T09:18:44.906Z,15.93
2017-10-11T09:19:44.571Z,15.98
2017-10-11T09:20:44.869Z,15.96
2017-10-11T09:21:44.852Z,16.13
2017-10-11T09:22:44.833Z,16.16
2017-10-11T09:23:44.816Z,16.07
2017-10-11T09:24:44.778Z,16.16
2017-10-11T09:25:44.772Z,16.25
2017-10-11T09:26:44.739Z,16.22
2017-10-11T09:27:44.730Z,16.36
2017-10-11T09:28:44.706Z,16.41
2017-10-11T09:29:44.677Z,16.37
2017-10-11T09:30:44.657Z,16.47
2017-10-11T09:31:44.637Z,16.45
2017-10-11T09:32:44.620Z,16.47
2017-10-11T09:33:44.599Z,16.55
2017-10-11T09:34:44.256Z,16.42
2017-10-11T09:35:44.553Z,16.48
2017-10-11T09:36:44.534Z,16.42
2017-10-11T09:37:44.528Z,16.48
2017-10-11T09:38:44.497Z,16.5
2017-10-11T09:39:44.474Z,16.47
2017-10-11T09:40:44.452Z,16.45
2017-10-11T09:41:44.426Z,16.5
2017-10-11T09:42:44.084Z,16.48
2017-10-11T09:43:44.398Z,16.47
2017-10-11T09:44:44.361Z,16.55
2017-10-11T09:45:44.346Z,16.48
2017-10-11T09:46:44.326Z,16.5
2017-10-11T09:47:44.305Z,16.48
2017-10-11T09:48:43.962Z,16.54
2017-10-11T09:49:44.261Z,16.47
2017-10-11T09:50:44.241Z,16.45
2017-10-11T09:51:44.225Z,16.5
2017-10-11T09:52:44.200Z,16.42
2017-10-11T09:53:43.863Z,16.44
2017-10-11T09:54:44.154Z,16.48
2017-10-11T09:55:43.841Z,16.57
2017-10-11T09:56:44.123Z,16.44
2017-10-11T09:57:44.097Z,16.42
2017-10-11T09:58:44.073Z,16.37
2017-10-11T09:59:44.053Z,16.36
2017-10-11T10:00:44.037Z,16.32
2017-10-11T10:01:44.014Z,16.25
2017-10-11T10:02:43.989Z,16.32
2017-10-11T10:03:43.649Z,16.17
2017-10-11T10:04:43.946Z,16.25
2017-10-11T10:05:43.931Z,16.25
2017-10-11T10:06:43.909Z,16.17
2017-10-11T10:07:43.899Z,16.16
2017-10-11T10:08:43.864Z,16.14
2017-10-11T10:09:43.849Z,16.13
2017-10-11T10:10:43.834Z,16.06
2017-10-11T10:11:43.494Z,16.08
2017-10-11T10:12:43.794Z,15.99
2017-10-11T10:13:43.759Z,16.14
2017-10-11T10:14:43.756Z,16.06
2017-10-11T10:15:43.721Z,16.11
2017-10-11T10:16:43.699Z,16.08
2017-10-11T10:17:43.676Z,15.98
2017-10-11T10:18:43.660Z,16.04
2017-10-11T10:19:43.661Z,15.98
2017-10-11T10:20:43.622Z,15.98
2017-10-11T10:21:43.599Z,15.95
2017-10-11T10:22:43.570Z,15.96
2017-10-11T10:23:43.572Z,15.95
2017-10-11T10:24:42.892Z,15.95
2017-10-11T10:25:43.512Z,15.91
2017-10-11T10:26:43.489Z,16.03
2017-10-11T10:27:43.479Z,15.95
2017-10-11T10:28:43.467Z,15.91
2017-10-11T10:29:43.428Z,15.85
2017-10-11T10:30:43.408Z,16.03
2017-10-11T10:31:43.388Z,15.88
2017-10-11T10:32:43.360Z,15.86
2017-10-11T10:33:43.340Z,15.85
2017-10-11T10:34:43.323Z,15.78
2017-10-11T10:35:43.306Z,15.86
2017-10-11T10:36:43.271Z,15.85
2017-10-11T10:37:43.257Z,15.86
2017-10-11T10:38:43.255Z,15.86
2017-10-11T10:39:43.215Z,15.8
2017-10-11T10:40:42.875Z,15.86
2017-10-11T10:41:43.180Z,15.88
2017-10-11T10:42:43.172Z,15.81
2017-10-11T10:43:43.128Z,15.88
2017-10-11T10:44:43.118Z,15.78
2017-10-11T10:45:42.777Z,15.92
2017-10-11T10:46:43.063Z,15.91
2017-10-11T10:47:43.050Z,15.89
2017-10-11T10:48:43.021Z,15.92
2017-10-11T10:49:42.690Z,15.93
2017-10-11T10:50:42.984Z,15.88
2017-10-11T10:51:42.975Z,15.95
2017-10-11T10:52:42.965Z,15.84
2017-10-11T10:53:42.956Z,15.96
2017-10-11T10:54:42.903Z,15.92
2017-10-11T10:55:42.883Z,15.98
2017-10-11T10:56:42.853Z,16.07
2017-10-11T10:57:42.834Z,16.1
2017-10-11T10:58:42.811Z,16.25
2017-10-11T10:59:42.805Z,16.26
2017-10-11T11:00:42.764Z,16.33
2017-10-11T11:01:42.749Z,16.41
2017-10-11T11:02:42.407Z,16.48
2017-10-11T11:03:42.720Z,16.54
2017-10-11T11:04:42.688Z,16.69
2017-10-11T11:05:42.671Z,16.75
2017-10-11T11:06:42.641Z,16.91
2017-10-11T11:07:42.615Z,16.96
2017-10-11T11:08:42.597Z,17.07
2017-10-11T11:09:42.590Z,17.14
2017-10-11T11:10:42.563Z,17.3
2017-10-11T11:11:42.548Z,17.38
2017-10-11T11:12:42.529Z,17.36
2017-10-11T11:13:42.519Z,17.51
2017-10-11T11:14:42.477Z,17.65
2017-10-11T11:15:42.478Z,17.79
2017-10-11T11:16:42.447Z,17.89
2017-10-11T11:17:42.422Z,18.07
2017-10-11T11:18:42.406Z,18.21
2017-10-11T11:19:42.385Z,18.16
2017-10-11T11:20:42.359Z,18.32
2017-10-11T11:21:42.338Z,18.21
2017-10-11T11:22:42.322Z,18.14
2017-10-11T11:23:41.987Z,18.21
2017-10-11T11:24:42.281Z,18.17
2017-10-11T11:25:42.270Z,18.11
2017-10-11T11:26:42.249Z,18.02
2017-10-11T11:27:42.228Z,18.09
2017-10-11T11:28:42.210Z,17.96
2017-10-11T11:29:42.183Z,17.96
2017-10-11T11:30:42.160Z,17.92
2017-10-11T11:31:42.146Z,17.8
2017-10-11T11:32:42.127Z,17.73
2017-10-11T11:33:41.784Z,17.62
2017-10-11T11:34:42.091Z,17.58
2017-10-11T11:35:42.062Z,17.58
2017-10-11T11:36:42.056Z,17.43
2017-10-11T11:37:42.027Z,17.39
2017-10-11T11:38:42.012Z,17.3
2017-10-11T11:39:41.984Z,17.25
2017-10-11T11:40:41.965Z,17.17
2017-10-11T11:41:41.955Z,17.09
2017-10-11T11:42:41.611Z,17.09
2017-10-11T11:44:53.066Z,17.1
2017-10-11T11:45:53.040Z,17.06
2017-10-11T11:46:52.699Z,17.15
2017-10-11T11:47:52.685Z,17.1
2017-10-11T11:48:52.977Z,17.06
2017-10-11T11:49:52.964Z,16.98
2017-10-11T11:50:52.946Z,16.9
2017-10-11T11:51:52.944Z,16.87
2017-10-11T11:52:52.943Z,16.92
2017-10-11T11:53:52.879Z,16.85
2017-10-11T11:54:52.855Z,16.88
2017-10-11T11:55:52.833Z,16.82
2017-10-11T11:56:52.820Z,16.72
2017-10-11T11:57:52.798Z,16.8
2017-10-11T11:58:52.782Z,16.81
2017-10-11T11:59:52.756Z,16.62
2017-10-11T12:03:52.794Z,16.55
2017-10-11T12:04:52.654Z,16.6
2017-10-11T12:05:52.641Z,16.5
2017-10-11T12:06:52.604Z,16.55
2017-10-11T12:07:52.276Z,16.51
2017-10-11T12:08:52.574Z,16.55
2017-10-11T12:09:52.550Z,16.5
2017-10-11T12:10:52.560Z,16.5
2017-10-11T12:11:52.515Z,16.45
2017-10-11T12:12:52.165Z,16.33
2017-10-11T12:13:52.467Z,16.29
2017-10-11T12:14:52.445Z,16.33
2017-10-11T12:15:52.417Z,16.23
2017-10-11T12:16:52.091Z,16.26
2017-10-11T12:17:52.387Z,16.22
2017-10-11T12:18:52.363Z,16.08
2017-10-11T12:19:52.344Z,16.04
2017-10-11T12:20:52.320Z,16.07
2017-10-11T12:21:51.978Z,15.99
2017-10-11T12:22:52.270Z,15.95
2017-10-11T12:23:52.253Z,15.96
2017-10-11T12:24:52.234Z,15.92
2017-10-11T12:25:52.217Z,15.98
2017-10-11T12:26:52.240Z,15.91
2017-10-11T12:27:52.187Z,15.99
2017-10-11T12:28:52.146Z,15.95
2017-10-11T12:29:52.127Z,16.01
2017-10-11T12:30:52.125Z,15.95
2017-10-11T12:31:52.092Z,15.95
2017-10-11T12:32:52.061Z,15.95
2017-10-11T12:33:52.081Z,15.98
2017-10-11T12:34:52.028Z,15.98
2017-10-11T12:35:52.002Z,15.93
2017-10-11T12:36:51.975Z,15.99
2017-10-11T12:37:51.954Z,16.07
2017-10-11T12:38:51.944Z,16.03
2017-10-11T12:39:51.926Z,16.11
2017-10-11T12:40:51.898Z,16.16
2017-10-11T12:41:51.886Z,16.23
2017-10-11T12:42:51.896Z,16.34
2017-10-11T12:43:51.832Z,16.41
2017-10-11T12:44:51.808Z,16.32
2017-10-11T12:45:51.803Z,16.42
2017-10-11T12:46:51.778Z,16.41
2017-10-11T12:47:51.745Z,16.45
2017-10-11T12:48:51.730Z,16.6
2017-10-11T12:49:51.705Z,16.65
2017-10-11T12:50:51.692Z,16.73
2017-10-11T12:51:51.661Z,16.77
2017-10-11T12:52:51.321Z,16.73
2017-10-11T12:53:51.618Z,16.75
2017-10-11T12:54:51.603Z,16.91
2017-10-11T12:55:51.582Z,16.9
2017-10-11T12:56:51.565Z,16.82
2017-10-11T12:57:51.535Z,16.85
2017-10-11T12:58:51.523Z,16.9